createdAt,value
2022-11-16T00:01:57.221Z,11.70
2022-11-16T00:04:25.196Z,11.70
2022-11-16T00:06:53.199Z,11.70
2022-11-16T00:09:26.648Z,11.70
2022-11-16T00:11:56.287Z,12.20
2022-11-16T00:14:26.314Z,11.70
2022-11-16T00:16:54.317Z,11.60
2022-11-16T00:19:23.845Z,11.60
2022-11-16T00:21:52.234Z,12.60
2022-11-16T00:24:22.180Z,12.00
2022-11-16T00:26:50.759Z,11.50
2022-11-16T00:29:20.621Z,11.50
2022-11-16T00:31:49.165Z,11.50
2022-11-16T00:34:17.244Z,12.10
2022-11-16T00:36:47.152Z,11.50
2022-11-16T00:39:16.463Z,11.50
2022-11-16T00:41:44.958Z,11.40
2022-11-16T00:44:13.278Z,12.10
2022-11-16T00:46:41.481Z,12.20
2022-11-16T00:49:09.747Z,11.40
2022-11-16T00:51:38.373Z,11.40
2022-11-16T00:54:09.213Z,11.40
2022-11-16T00:56:38.005Z,12.80
2022-11-16T00:59:06.049Z,12.50
2022-11-16T01:01:34.100Z,11.30
2022-11-16T01:04:02.189Z,13.10
2022-11-16T01:06:30.140Z,11.90
2022-11-16T01:08:58.063Z,12.90
2022-11-16T01:11:45.093Z,12.90
2022-11-16T01:14:13.402Z,12.10
2022-11-16T01:16:41.303Z,12.50
2022-11-16T01:19:10.165Z,11.70
2022-11-16T01:21:38.095Z,12.50
2022-11-16T01:24:06.804Z,12.40
2022-11-16T01:26:36.150Z,11.30
2022-11-16T01:29:04.210Z,11.30
2022-11-16T01:31:32.140Z,12.80
2022-11-16T01:34:00.108Z,12.80
2022-11-16T01:36:28.011Z,12.20
2022-11-16T01:38:55.959Z,12.40
2022-11-16T01:41:25.699Z,12.10
2022-11-16T01:43:58.274Z,13.00
2022-11-16T01:46:28.051Z,11.20
2022-11-16T01:49:01.667Z,12.20
2022-11-16T01:51:30.217Z,12.00
2022-11-16T01:53:59.714Z,11.90
2022-11-16T01:56:27.937Z,11.90
2022-11-16T01:58:57.266Z,12.90
2022-11-16T02:01:25.557Z,12.20
2022-11-16T02:03:53.516Z,11.80
2022-11-16T02:06:50.399Z,13.20
2022-11-16T02:09:53.397Z,11.10
2022-11-16T02:13:03.646Z,12.30
2022-11-16T02:15:37.202Z,11.10
2022-11-16T02:18:16.996Z,11.60
2022-11-16T02:21:00.164Z,11.90
2022-11-16T02:24:05.011Z,11.10
2022-11-16T02:27:11.334Z,11.10
2022-11-16T02:29:44.089Z,11.40
2022-11-16T02:32:15.805Z,11.10
2022-11-16T02:34:48.838Z,13.00
2022-11-16T02:37:20.168Z,12.70
2022-11-16T02:39:50.207Z,12.90
2022-11-16T02:42:21.902Z,11.90
2022-11-16T02:44:55.243Z,12.60
2022-11-16T02:47:25.859Z,10.90
2022-11-16T02:49:58.934Z,11.90
2022-11-16T02:52:29.328Z,11.70
2022-11-16T02:54:57.268Z,12.90
2022-11-16T02:57:40.956Z,10.80
2022-11-16T03:00:16.733Z,10.80
2022-11-16T03:02:51.432Z,10.70
2022-11-16T03:05:31.809Z,10.80
2022-11-16T03:08:08.571Z,10.60
2022-11-16T03:10:57.826Z,11.40
2022-11-16T03:13:28.966Z,11.20
2022-11-16T03:16:00.520Z,10.50
2022-11-16T03:18:30.039Z,12.40
2022-11-16T03:21:10.138Z,10.40
2022-11-16T03:23:38.619Z,10.40
2022-11-16T03:26:09.107Z,12.40
2022-11-16T03:28:44.520Z,10.30
2022-11-16T03:31:18.718Z,10.30
2022-11-16T03:33:49.847Z,11.50
2022-11-16T03:36:22.946Z,11.10
2022-11-16T03:38:52.894Z,10.20
2022-11-16T03:41:24.086Z,10.20
2022-11-16T03:43:53.055Z,10.10
2022-11-16T03:46:22.386Z,10.10
2022-11-16T03:48:56.775Z,10.80
2022-11-16T03:51:24.728Z,12.00
2022-11-16T03:53:52.657Z,12.10
2022-11-16T03:56:20.874Z,12.10
2022-11-16T03:58:48.866Z,10.20
2022-11-16T04:01:16.829Z,11.50
2022-11-16T04:03:46.212Z,9.90
2022-11-16T04:06:31.653Z,9.90
2022-11-16T04:09:17.329Z,10.00
2022-11-16T04:12:02.697Z,10.70
2022-11-16T04:14:48.274Z,11.90
2022-11-16T04:17:35.526Z,11.10
2022-11-16T04:20:22.817Z,10.30
2022-11-16T04:23:12.985Z,9.80
2022-11-16T04:25:42.806Z,9.80
2022-11-16T04:28:16.562Z,9.80
2022-11-16T04:31:15.946Z,9.80
2022-11-16T04:34:01.771Z,9.80
2022-11-16T04:36:48.449Z,10.30
2022-11-16T04:39:16.402Z,9.80
2022-11-16T04:42:02.414Z,10.00
2022-11-16T04:44:50.364Z,9.70
2022-11-16T04:47:17.242Z,9.70
2022-11-16T04:49:45.162Z,10.70
2022-11-16T04:52:14.456Z,11.60
2022-11-16T04:54:42.329Z,9.70
2022-11-16T04:57:10.286Z,9.70
2022-11-16T04:59:38.205Z,9.70
2022-11-16T05:02:12.154Z,9.70
2022-11-16T05:04:41.778Z,9.70
2022-11-16T05:07:11.094Z,9.70
2022-11-16T05:09:42.859Z,9.70
2022-11-16T05:12:11.746Z,9.60
2022-11-16T05:14:39.661Z,9.60
2022-11-16T05:17:07.530Z,9.60
2022-11-16T05:19:52.940Z,9.60
2022-11-16T05:22:20.917Z,9.70
2022-11-16T05:24:50.260Z,9.60
2022-11-16T05:27:19.234Z,9.90
2022-11-16T05:29:49.446Z,9.50
2022-11-16T05:32:18.007Z,9.50
2022-11-16T05:34:46.253Z,10.60
2022-11-16T05:37:14.234Z,9.50
2022-11-16T05:39:42.117Z,10.20
2022-11-16T05:42:11.471Z,9.40
2022-11-16T05:44:39.401Z,9.60
2022-11-16T05:47:07.323Z,9.40
2022-11-16T05:49:35.210Z,9.40
2022-11-16T05:52:03.109Z,9.80
2022-11-16T05:54:31.241Z,9.50
2022-11-16T05:56:59.132Z,9.50
2022-11-16T05:59:29.972Z,9.40
2022-11-16T06:01:57.952Z,10.10
2022-11-16T06:04:25.953Z,9.50
2022-11-16T06:06:53.980Z,9.50
2022-11-16T06:09:21.974Z,9.50
2022-11-16T06:11:49.878Z,9.50
2022-11-16T06:14:17.854Z,9.50
2022-11-16T06:16:47.115Z,10.30
2022-11-16T06:19:15.050Z,9.80
2022-11-16T06:21:43.010Z,9.50
2022-11-16T06:24:10.919Z,9.50
2022-11-16T06:26:38.907Z,10.30
2022-11-16T06:29:06.889Z,9.90
2022-11-16T06:31:34.839Z,10.20
2022-11-16T06:34:04.150Z,9.50
2022-11-16T06:36:32.122Z,9.50
2022-11-16T06:39:01.054Z,9.50
2022-11-16T06:41:28.944Z,9.50
2022-11-16T06:43:56.899Z,9.50
2022-11-16T06:46:25.606Z,9.50
2022-11-16T06:48:53.502Z,10.50
2022-11-16T06:51:22.744Z,9.50
2022-11-16T06:53:50.701Z,9.50
2022-11-16T06:56:19.473Z,9.50
2022-11-16T06:58:47.364Z,10.10
2022-11-16T07:01:15.367Z,10.30
2022-11-16T07:03:43.981Z,9.50
2022-11-16T07:06:13.318Z,9.50
2022-11-16T07:08:42.622Z,9.50
2022-11-16T07:11:11.757Z,9.50
2022-11-16T07:13:40.060Z,9.50
2022-11-16T07:16:09.743Z,9.50
2022-11-16T07:18:39.115Z,9.50
2022-11-16T07:21:07.992Z,9.90
2022-11-16T07:23:36.077Z,9.50
2022-11-16T07:26:07.087Z,10.60
2022-11-16T07:28:35.545Z,9.50
2022-11-16T07:31:03.903Z,9.50
2022-11-16T07:33:32.004Z,9.60
2022-11-16T07:36:02.604Z,9.60
2022-11-16T07:38:30.756Z,9.60
2022-11-16T07:41:01.254Z,9.60
2022-11-16T07:43:32.466Z,9.60
2022-11-16T07:46:30.206Z,9.60
2022-11-16T07:48:51.590Z,9.60
2022-11-16T07:51:20.704Z,9.60
2022-11-16T07:53:48.619Z,9.60
2022-11-16T07:56:16.546Z,9.60
2022-11-16T07:58:46.237Z,9.60
2022-11-16T08:01:15.970Z,9.60
2022-11-16T08:03:45.451Z,9.60
2022-11-16T08:06:16.995Z,9.60
2022-11-16T08:08:45.238Z,9.60
2022-11-16T08:11:14.305Z,9.60
2022-11-16T08:13:43.425Z,10.80
2022-11-16T08:16:14.925Z,9.70
2022-11-16T08:18:43.409Z,9.70
2022-11-16T08:21:13.813Z,9.70
2022-11-16T08:23:41.899Z,9.70
2022-11-16T08:26:13.569Z,9.70
2022-11-16T08:28:42.348Z,9.70
2022-11-16T08:31:13.712Z,9.80
2022-11-16T08:33:42.029Z,9.80
2022-11-16T08:36:17.090Z,9.90
2022-11-16T08:38:45.296Z,9.80
2022-11-16T08:41:13.458Z,9.80
2022-11-16T08:43:42.049Z,9.90
2022-11-16T08:46:11.787Z,9.90
2022-11-16T08:48:39.842Z,9.90
2022-11-16T08:51:17.341Z,9.90
2022-11-16T08:53:47.899Z,9.90
2022-11-16T08:56:16.752Z,9.90
2022-11-16T08:58:46.933Z,9.80
2022-11-16T09:01:19.415Z,9.80
2022-11-16T09:03:48.658Z,9.80
2022-11-16T09:06:17.247Z,9.80
2022-11-16T09:08:46.994Z,9.80
2022-11-16T09:11:16.960Z,9.80
2022-11-16T09:13:45.588Z,9.80
2022-11-16T09:16:15.810Z,10.80
2022-11-16T09:18:46.598Z,9.80
2022-11-16T09:21:18.955Z,9.80
2022-11-16T09:23:47.574Z,9.90
2022-11-16T09:26:15.452Z,9.90
2022-11-16T09:28:43.434Z,9.90
2022-11-16T09:31:11.611Z,9.90
2022-11-16T09:33:39.470Z,10.00
2022-11-16T09:36:10.175Z,10.50
2022-11-16T09:39:13.919Z,10.00
2022-11-16T09:41:53.070Z,9.90
2022-11-16T09:44:45.473Z,9.90
2022-11-16T09:47:18.267Z,9.90
2022-11-16T09:49:52.170Z,9.80
2022-11-16T09:52:27.616Z,9.80
2022-11-16T09:54:56.896Z,9.70
2022-11-16T09:57:30.182Z,9.70
2022-11-16T10:00:03.181Z,9.70
2022-11-16T10:02:36.374Z,9.70
2022-11-16T10:05:12.966Z,9.70
2022-11-16T10:07:46.629Z,9.60
2022-11-16T10:10:15.917Z,9.60
2022-11-16T10:12:49.694Z,9.60
2022-11-16T10:15:33.589Z,9.60
2022-11-16T10:18:13.650Z,9.50
2022-11-16T10:20:51.700Z,9.50
2022-11-16T10:23:32.035Z,9.50
2022-11-16T10:26:13.238Z,9.50
2022-11-16T10:29:11.373Z,9.40
2022-11-16T10:31:55.073Z,9.30
2022-11-16T10:34:28.150Z,9.30
2022-11-16T10:37:03.159Z,9.20
2022-11-16T10:39:33.946Z,9.20
2022-11-16T10:42:07.482Z,10.10
2022-11-16T10:44:39.786Z,9.10
2022-11-16T10:47:16.452Z,9.10
2022-11-16T10:49:57.300Z,9.10
2022-11-16T10:52:25.461Z,9.00
2022-11-16T10:54:58.135Z,9.00
2022-11-16T10:57:26.533Z,9.00
2022-11-16T10:59:56.559Z,9.00
2022-11-16T11:02:32.595Z,9.00
2022-11-16T11:05:06.549Z,8.90
2022-11-16T11:07:37.804Z,8.90
2022-11-16T11:10:29.000Z,8.80
2022-11-16T11:13:20.596Z,8.80
2022-11-16T11:15:51.182Z,8.80
2022-11-16T11:18:25.982Z,8.80
2022-11-16T11:21:07.051Z,8.90
2022-11-16T11:23:43.414Z,8.90
2022-11-16T11:26:34.719Z,9.00
2022-11-16T11:29:16.334Z,9.00
2022-11-16T11:31:46.384Z,9.00
2022-11-16T11:34:20.240Z,9.30
2022-11-16T11:36:52.636Z,9.00
2022-11-16T11:39:33.090Z,9.00
2022-11-16T11:42:23.926Z,9.00
2022-11-16T11:44:58.702Z,9.00
2022-11-16T11:47:57.356Z,9.00
2022-11-16T11:50:34.004Z,9.00
2022-11-16T11:53:06.965Z,8.90
2022-11-16T11:55:35.593Z,8.90
2022-11-16T11:58:06.909Z,8.90
2022-11-16T12:00:44.649Z,8.90
2022-11-16T12:03:34.390Z,8.90
2022-11-16T12:06:08.590Z,8.90
2022-11-16T12:09:02.254Z,8.90
2022-11-16T12:11:39.993Z,8.90
2022-11-16T12:14:32.758Z,8.90
2022-11-16T12:17:09.769Z,8.90
2022-11-16T12:20:09.089Z,8.80
2022-11-16T12:23:15.306Z,8.80
2022-11-16T12:25:51.417Z,8.80
2022-11-16T12:28:35.645Z,8.80
2022-11-16T12:31:23.806Z,8.80
2022-11-16T12:33:57.076Z,8.80
2022-11-16T12:36:37.058Z,8.80
2022-11-16T12:39:20.408Z,8.80
2022-11-16T12:42:12.891Z,8.70
2022-11-16T12:45:10.916Z,8.80
2022-11-16T12:47:57.205Z,8.70
2022-11-16T12:50:43.128Z,8.70
2022-11-16T12:53:24.369Z,8.60
2022-11-16T12:56:01.694Z,8.60
2022-11-16T12:58:45.566Z,8.50
2022-11-16T13:01:21.923Z,8.50
2022-11-16T13:03:55.415Z,8.50
2022-11-16T13:06:29.379Z,8.60
2022-11-16T13:09:04.917Z,8.60
2022-11-16T13:11:37.714Z,8.60
2022-11-16T13:14:09.021Z,8.70
2022-11-16T13:16:37.019Z,9.00
2022-11-16T13:19:11.430Z,8.70
2022-11-16T13:21:50.484Z,8.70
2022-11-16T13:24:42.692Z,9.40
2022-11-16T13:27:19.228Z,8.70
2022-11-16T13:29:54.104Z,10.00
2022-11-16T13:32:31.526Z,8.60
2022-11-16T13:35:04.843Z,8.60
2022-11-16T13:37:50.038Z,8.60
2022-11-16T13:40:38.701Z,8.50
2022-11-16T13:43:16.692Z,8.60
2022-11-16T13:45:51.863Z,8.60
2022-11-16T13:48:21.378Z,8.60
2022-11-16T13:50:54.010Z,10.30
2022-11-16T13:56:18.041Z,8.40
2022-11-16T13:58:48.429Z,8.30
2022-11-16T14:01:17.388Z,8.30
2022-11-16T14:03:46.602Z,8.30
2022-11-16T14:06:48.117Z,9.30
2022-11-16T14:09:48.806Z,8.20
2022-11-16T14:12:56.726Z,8.20
2022-11-16T14:15:35.907Z,8.10
2022-11-16T14:18:31.603Z,8.10
2022-11-16T14:21:00.352Z,8.00
2022-11-16T14:23:46.759Z,7.90
2022-11-16T14:26:23.291Z,7.90
2022-11-16T14:29:16.441Z,7.90
2022-11-16T14:31:50.764Z,8.30
2022-11-16T14:34:21.523Z,9.00
2022-11-16T14:36:50.827Z,9.20
2022-11-16T14:39:38.372Z,9.00
2022-11-16T14:42:17.498Z,7.80
2022-11-16T14:44:46.063Z,7.70
2022-11-16T14:47:25.000Z,9.50
2022-11-16T14:49:54.046Z,7.70
2022-11-16T14:52:29.938Z,7.70
2022-11-16T14:55:01.522Z,7.70
2022-11-16T14:57:31.055Z,7.70
2022-11-16T15:00:13.526Z,9.20
2022-11-16T15:02:41.870Z,7.70
2022-11-16T15:05:16.775Z,9.10
2022-11-16T15:07:46.230Z,7.70
2022-11-16T15:10:17.854Z,9.10
2022-11-16T15:12:51.524Z,7.60
2022-11-16T15:15:22.669Z,7.60
2022-11-16T15:18:06.132Z,8.50
2022-11-16T15:20:35.772Z,8.60
2022-11-16T15:23:14.514Z,7.50
2022-11-16T15:25:45.153Z,7.50
2022-11-16T15:28:18.787Z,7.50
2022-11-16T15:30:49.696Z,7.40
2022-11-16T15:33:21.471Z,7.40
2022-11-16T15:35:49.580Z,7.30
2022-11-16T15:38:21.362Z,7.40
2022-11-16T15:40:51.542Z,7.30
2022-11-16T15:43:23.187Z,7.30
2022-11-16T15:45:51.910Z,7.30
2022-11-16T15:48:22.785Z,7.90
2022-11-16T15:51:04.232Z,7.20
2022-11-16T15:53:38.735Z,7.10
2022-11-16T15:56:09.809Z,7.10
2022-11-16T15:58:41.701Z,7.10
2022-11-16T16:01:11.234Z,7.10
2022-11-16T16:03:39.548Z,7.10
2022-11-16T16:06:09.406Z,7.10
2022-11-16T16:08:39.265Z,7.00
2022-11-16T16:11:27.540Z,7.00
2022-11-16T16:14:01.183Z,5.30
2022-11-16T16:16:31.768Z,8.50
2022-11-16T16:19:08.148Z,8.60
2022-11-16T16:21:47.899Z,6.90
2022-11-16T16:24:48.149Z,8.80
2022-11-16T16:27:18.626Z,6.80
2022-11-16T16:29:49.195Z,6.80
2022-11-16T16:32:25.846Z,6.80
2022-11-16T16:34:54.137Z,7.70
2022-11-16T16:37:22.359Z,6.80
2022-11-16T16:39:50.361Z,8.10
2022-11-16T16:42:18.817Z,6.70
2022-11-16T16:44:48.828Z,6.70
2022-11-16T16:47:17.516Z,6.70
2022-11-16T16:49:45.416Z,6.70
2022-11-16T16:52:14.142Z,6.70
2022-11-16T16:54:42.507Z,6.70
2022-11-16T16:57:14.831Z,6.80
2022-11-16T16:59:45.020Z,6.70
2022-11-16T17:02:16.595Z,7.60
2022-11-16T17:04:46.776Z,7.00
2022-11-16T17:07:15.019Z,6.70
2022-11-16T17:09:43.298Z,6.70
2022-11-16T17:12:11.859Z,6.80
2022-11-16T17:14:39.795Z,7.60
2022-11-16T17:17:07.752Z,6.80
2022-11-16T17:19:37.037Z,6.80
2022-11-16T17:22:04.981Z,6.80
2022-11-16T17:24:32.881Z,6.80
2022-11-16T17:27:00.809Z,6.80
2022-11-16T17:29:28.773Z,6.80
2022-11-16T17:31:56.728Z,6.80
2022-11-16T17:34:24.847Z,6.80
2022-11-16T17:36:55.953Z,8.40
2022-11-16T17:39:24.808Z,6.80
2022-11-16T17:41:53.219Z,6.80
2022-11-16T17:44:22.450Z,6.80
2022-11-16T17:46:50.647Z,6.80
2022-11-16T17:49:20.722Z,6.80
2022-11-16T17:51:48.766Z,6.70
2022-11-16T17:54:18.098Z,6.80
2022-11-16T17:56:46.079Z,8.30
2022-11-16T17:59:13.996Z,6.70
2022-11-16T18:01:41.995Z,8.70
2022-11-16T18:04:09.981Z,6.80
2022-11-16T18:06:38.098Z,8.40
2022-11-16T18:09:06.077Z,6.80
2022-11-16T18:11:35.870Z,6.80
2022-11-16T18:14:05.523Z,6.90
2022-11-16T18:16:34.561Z,6.90
2022-11-16T18:19:04.310Z,6.90
2022-11-16T18:21:33.745Z,6.90
2022-11-16T18:24:02.772Z,8.30
2022-11-16T18:26:30.695Z,7.00
2022-11-16T18:29:00.017Z,7.00
2022-11-16T18:31:29.651Z,6.90
2022-11-16T18:33:57.620Z,7.00
2022-11-16T18:36:25.569Z,7.20
2022-11-16T18:38:53.514Z,8.60
2022-11-16T18:41:29.025Z,8.90
2022-11-16T18:44:00.026Z,7.00
2022-11-16T18:46:29.642Z,7.80
2022-11-16T18:48:58.047Z,7.10
2022-11-16T18:51:27.437Z,7.00
2022-11-16T18:53:55.863Z,8.20
2022-11-16T18:56:24.842Z,7.00
2022-11-16T18:58:53.556Z,7.00
2022-11-16T19:01:25.211Z,7.00
2022-11-16T19:03:54.479Z,7.00
2022-11-16T19:06:23.448Z,7.00
2022-11-16T19:08:56.495Z,6.90
2022-11-16T19:11:25.244Z,7.00
2022-11-16T19:13:55.364Z,7.90
2022-11-16T19:16:25.462Z,8.70
2022-11-16T19:18:53.744Z,9.00
2022-11-16T19:21:22.907Z,7.80
2022-11-16T19:23:52.743Z,8.10
2022-11-16T19:26:23.201Z,7.10
2022-11-16T19:28:52.080Z,7.70
2022-11-16T19:31:21.757Z,7.00
2022-11-16T19:33:54.624Z,7.00
2022-11-16T19:36:23.047Z,7.00
2022-11-16T19:38:51.250Z,7.00
2022-11-16T19:41:21.330Z,7.00
2022-11-16T19:43:51.223Z,7.00
2022-11-16T19:46:21.222Z,7.00
2022-11-16T19:48:50.880Z,7.00
2022-11-16T19:51:20.616Z,7.00
2022-11-16T19:53:48.967Z,7.50
2022-11-16T19:56:20.934Z,7.00
2022-11-16T19:58:49.445Z,6.90
2022-11-16T20:01:19.114Z,8.10
2022-11-16T20:03:48.447Z,7.50
2022-11-16T20:06:20.565Z,6.90
2022-11-16T20:08:49.917Z,7.80
2022-11-16T20:11:20.492Z,6.90
2022-11-16T20:13:49.084Z,6.90
2022-11-16T20:16:18.306Z,7.20
2022-11-16T20:18:47.617Z,8.40
2022-11-16T20:21:20.472Z,8.40
2022-11-16T20:23:48.442Z,8.10
2022-11-16T20:26:16.583Z,7.90
2022-11-16T20:28:45.185Z,7.00
2022-11-16T20:31:15.267Z,6.90
2022-11-16T20:33:44.099Z,8.10
2022-11-16T20:36:12.977Z,6.70
2022-11-16T20:38:42.453Z,6.80
2022-11-16T20:41:12.060Z,7.70
2022-11-16T20:43:41.557Z,6.30
2022-11-16T20:46:10.853Z,6.90
2022-11-16T20:48:39.313Z,6.80
2022-11-16T20:51:08.357Z,6.80
2022-11-16T20:53:36.964Z,7.60
2022-11-16T20:56:08.085Z,6.80
2022-11-16T20:58:36.320Z,6.90
2022-11-16T21:01:05.423Z,8.60
2022-11-16T21:03:34.421Z,8.00
2022-11-16T21:06:02.843Z,6.90
2022-11-16T21:08:30.836Z,6.90
2022-11-16T21:10:58.969Z,6.80
2022-11-16T21:13:47.950Z,6.80
2022-11-16T21:16:29.092Z,7.80
2022-11-16T21:18:57.012Z,6.80
2022-11-16T21:21:25.772Z,6.80
2022-11-16T21:23:54.960Z,7.00
2022-11-16T21:26:25.232Z,6.70
2022-11-16T21:28:54.785Z,6.80
2022-11-16T21:31:25.450Z,6.70
2022-11-16T21:33:54.667Z,6.70
2022-11-16T21:36:23.915Z,6.70
2022-11-16T21:38:52.363Z,6.70
2022-11-16T21:41:22.694Z,6.70
2022-11-16T21:43:51.401Z,6.70
2022-11-16T21:46:22.271Z,6.60
2022-11-16T21:49:03.346Z,6.60
2022-11-16T21:51:31.799Z,8.40
2022-11-16T21:53:59.760Z,6.60
2022-11-16T21:56:27.805Z,7.70
2022-11-16T21:58:55.966Z,8.10
2022-11-16T22:01:25.428Z,6.70
2022-11-16T22:04:07.485Z,8.00
2022-11-16T22:06:53.457Z,6.70
2022-11-16T22:09:21.795Z,6.70
2022-11-16T22:11:49.782Z,6.70
2022-11-16T22:14:17.713Z,6.70
2022-11-16T22:16:47.033Z,6.70
2022-11-16T22:19:14.986Z,6.70
2022-11-16T22:21:42.911Z,6.70
2022-11-16T22:24:10.930Z,8.50
2022-11-16T22:26:39.917Z,6.70
2022-11-16T22:29:07.852Z,8.00
2022-11-16T22:31:36.321Z,6.70
2022-11-16T22:34:05.858Z,8.40
2022-11-16T22:36:33.902Z,7.10
2022-11-16T22:39:02.090Z,6.70
2022-11-16T22:41:30.066Z,7.90
2022-11-16T22:43:58.078Z,8.00
2022-11-16T22:46:26.030Z,6.70
2022-11-16T22:48:53.985Z,6.70
2022-11-16T22:51:25.474Z,6.70
2022-11-16T22:53:54.896Z,6.60
2022-11-16T22:56:22.863Z,6.60
2022-11-16T22:58:51.570Z,6.60
2022-11-16T23:01:20.034Z,7.20
2022-11-16T23:03:48.937Z,8.70
2022-11-16T23:06:17.334Z,7.10
2022-11-16T23:08:46.786Z,6.60
2022-11-16T23:11:34.391Z,6.60
2022-11-16T23:14:20.751Z,7.00
2022-11-16T23:16:48.771Z,6.60
2022-11-16T23:19:33.260Z,6.60
2022-11-16T23:22:18.826Z,6.50
2022-11-16T23:25:05.935Z,6.50
2022-11-16T23:27:40.679Z,6.50
2022-11-16T23:30:12.668Z,6.50
2022-11-16T23:32:41.865Z,6.50
2022-11-16T23:35:11.059Z,6.50
2022-11-16T23:37:51.811Z,6.40
2022-11-16T23:40:22.255Z,7.30
2022-11-16T23:43:07.750Z,6.40
2022-11-16T23:45:35.689Z,6.60
2022-11-16T23:48:03.792Z,6.40
2022-11-16T23:50:31.770Z,6.40
2022-11-16T23:52:59.902Z,6.40
2022-11-16T23:55:29.599Z,6.40
2022-11-16T23:57:57.596Z,6.70
